Hlavní strana
METAR-TAF:

METAR-TAF

Letiště :

Lawrenceville-Vincennes International Airport

Lawrenceville, Illinois, Spojené státy americké

zeměpisná šířka: 38-45-38N, zeměpisná délka: 087-35-56W, výška: 131 m

Aktuální stav počasí

Zpráva byla vytvořena před 59 minutami, v 22:53 UTC
Severoseverozápadní vítr 27 kt s nárazy do 38 kt
Teplota 12°C
Vlhkost vzduchu 28%
Tlak 1020 hPa
Viditelnost: 16.1 km
Jasno

METAR: KLWV 202253Z AUTO 33027G38KT 10SM CLR 12/M06 A3011 RMK AO2 PK WND 32042/2213 PRESRR SLP197 T01171056

Čas: 18:52 (23:52 UTC)


TAF: chybějící

Stav a předpovědi počasí z více než 4 000 letišť (zprávy METAR a TAF).

Červené a žluté tečky na mapě představují dostupné meteorologické stanice.

Když kurzor umístíte na tečku, zobrazí se název stanice.

Pak kliknutím zobrazíte stav a předpověď počasí.

Chcete-li změnit mapu, kliknutím na zelené tlačítko se znaménkem +mapu přiblížíte, kliknutím na zelené tlačítko se znaménkem – mapu oddálíte a kliknutím na zelené šipky přejdete na sousední mapy.


METAR-TAF: